Time,TemperatureF,DewpointF,PressureIn,WindDirection,WindDirectionDegrees,WindSpeedMPH,WindSpeedGustMPH,Humidity,HourlyPrecipIn,Conditions,Clouds,dailyrainin,SoftwareType,DateUTC
2013-01-19 00:03:00,26.0,25.0,30.54,WNW,288,4.0,7.0,96,0.00,,,-99.99,,2013-01-19 05:03:00,
2013-01-19 00:12:00,26.0,25.0,30.54,WNW,288,4.0,7.0,96,0.00,,,-99.99,,2013-01-19 05:12:00,
2013-01-19 00:23:00,25.0,24.0,30.54,WSW,256,5.0,8.0,96,0.00,,,-99.99,,2013-01-19 05:23:00,
2013-01-19 00:33:00,25.0,24.0,30.54,NNW,342,6.0,9.0,96,0.00,,,-99.99,,2013-01-19 05:33:00,
2013-01-19 00:43:00,25.0,24.0,30.54,NNW,342,6.0,9.0,96,0.00,,,-99.99,,2013-01-19 05:43:00,
2013-01-19 00:53:00,26.0,25.0,30.53,SW,221,5.0,8.0,95,0.00,,,-99.99,,2013-01-19 05:53:00,
2013-01-19 01:03:00,26.0,25.0,30.53,West,271,3.0,8.0,95,0.00,,,-99.99,,2013-01-19 06:03:00,
2013-01-19 01:12:00,26.0,25.0,30.53,West,271,3.0,8.0,95,0.00,,,-99.99,,2013-01-19 06:12:00,
2013-01-19 01:22:00,26.0,25.0,30.53,WSW,246,5.0,6.0,94,0.00,,,-99.99,,2013-01-19 06:22:00,
2013-01-19 01:32:00,26.0,25.0,30.52,North,357,3.0,10.0,94,0.00,,,-99.99,,2013-01-19 06:32:00,
2013-01-19 01:43:00,26.0,25.0,30.52,North,357,3.0,10.0,94,0.00,,,-99.99,,2013-01-19 06:43:00,
2013-01-19 01:53:00,26.0,25.0,30.51,WNW,290,5.0,10.0,94,0.00,,,-99.99,,2013-01-19 06:53:00,
2013-01-19 02:02:00,26.0,25.0,30.51,WNW,294,11.0,14.0,94,0.00,,,-99.99,,2013-01-19 07:02:00,
2013-01-19 02:12:00,26.0,25.0,30.51,WNW,294,11.0,14.0,94,0.00,,,-99.99,,2013-01-19 07:12:00,
2013-01-19 02:22:00,25.0,24.0,30.51,WNW,298,6.0,11.0,95,0.00,,,-99.99,,2013-01-19 07:22:00,
2013-01-19 02:33:00,25.0,24.0,30.52,WNW,302,9.0,12.0,95,0.00,,,-99.99,,2013-01-19 07:33:00,
2013-01-19 02:43:00,25.0,24.0,30.52,WNW,302,9.0,12.0,95,0.00,,,-99.99,,2013-01-19 07:43:00,
2013-01-19 02:53:00,25.0,24.0,30.51,WNW,285,7.0,10.0,95,0.00,,,-99.99,,2013-01-19 07:53:00,
2013-01-19 03:02:00,26.0,24.0,30.51,West,281,9.0,12.0,93,0.00,,,-99.99,,2013-01-19 08:02:00,
2013-01-19 03:12:00,26.0,24.0,30.51,West,281,9.0,12.0,93,0.00,,,-99.99,,2013-01-19 08:12:00,
2013-01-19 03:22:00,26.0,24.0,30.51,WNW,283,10.0,10.0,91,0.00,,,-99.99,,2013-01-19 08:22:00,
2013-01-19 03:32:00,26.0,23.0,30.51,WNW,285,8.0,9.0,87,0.00,,,-99.99,,2013-01-19 08:32:00,
2013-01-19 03:43:00,26.0,23.0,30.51,WNW,285,8.0,9.0,87,0.00,,,-99.99,,2013-01-19 08:43:00,
2013-01-19 03:52:00,27.0,23.0,30.51,West,259,6.0,16.0,84,0.00,,,-99.99,,2013-01-19 08:52:00,
2013-01-19 04:02:00,27.0,23.0,30.51,WNW,300,9.0,11.0,85,0.00,,,-99.99,,2013-01-19 09:02:00,
2013-01-19 04:12:00,27.0,23.0,30.51,WNW,300,9.0,11.0,85,0.00,,,-99.99,,2013-01-19 09:12:00,
2013-01-19 04:23:00,27.0,23.0,30.51,West,280,9.0,12.0,85,0.00,,,-99.99,,2013-01-19 09:23:00,
2013-01-19 04:33:00,26.0,22.0,30.50,West,280,5.0,11.0,86,0.00,,,-99.99,,2013-01-19 09:33:00,
2013-01-19 04:42:00,26.0,22.0,30.50,West,280,5.0,11.0,86,0.00,,,-99.99,,2013-01-19 09:42:00,
2013-01-19 04:52:00,26.0,23.0,30.50,WSW,249,8.0,15.0,87,0.00,,,-99.99,,2013-01-19 09:52:00,
2013-01-19 05:02:00,27.0,23.0,30.49,West,259,10.0,14.0,86,0.00,,,-99.99,,2013-01-19 10:02:00,
2013-01-19 05:12:00,27.0,24.0,30.49,NNW,333,7.0,13.0,88,0.00,,,-99.99,,2013-01-19 10:12:00,
2013-01-19 05:22:00,27.0,24.0,30.49,NNW,333,7.0,13.0,88,0.00,,,-99.99,,2013-01-19 10:22:00,
2013-01-19 05:32:00,27.0,24.0,30.49,WNW,287,3.0,12.0,89,0.00,,,-99.99,,2013-01-19 10:32:00,
2013-01-19 05:43:00,27.0,24.0,30.49,WNW,287,3.0,12.0,89,0.00,,,-99.99,,2013-01-19 10:43:00,
2013-01-19 05:53:00,26.0,23.0,30.49,WSW,252,2.0,12.0,89,0.00,,,-99.99,,2013-01-19 10:53:00,
2013-01-19 06:03:00,26.0,23.0,30.49,West,280,3.0,9.0,87,0.00,,,-99.99,,2013-01-19 11:03:00,
2013-01-19 06:12:00,26.0,23.0,30.49,West,280,3.0,9.0,87,0.00,,,-99.99,,2013-01-19 11:12:00,
2013-01-19 07:48:00,23.0,21.0,30.48,NW,311,2.0,3.0,93,0.00,,,-99.99,,2013-01-19 12:48:00,
2013-01-19 07:53:00,24.0,21.0,30.48,West,259,0.0,6.0,89,0.00,,,-99.99,,2013-01-19 12:53:00,
2013-01-19 08:03:00,24.0,21.0,30.48,NW,305,5.0,6.0,89,0.00,,,-99.99,,2013-01-19 13:03:00,
2013-01-19 08:12:00,24.0,21.0,30.48,NW,305,5.0,6.0,89,0.00,,,-99.99,,2013-01-19 13:12:00,
2013-01-19 08:22:00,24.0,21.0,30.49,WNW,294,0.0,4.0,88,0.00,,,-99.99,,2013-01-19 13:22:00,
2013-01-19 08:33:00,24.0,21.0,30.49,WNW,294,0.0,4.0,88,0.00,,,-99.99,,2013-01-19 13:33:00,
2013-01-19 08:43:00,24.0,21.0,30.49,WNW,294,0.0,4.0,88,0.00,,,-99.99,,2013-01-19 13:43:00,
2013-01-19 08:53:00,26.0,23.0,30.49,NW,305,0.0,2.0,87,0.00,,,-99.99,,2013-01-19 13:53:00,
2013-01-19 09:03:00,26.0,22.0,30.49,West,259,2.0,6.0,85,0.00,,,-99.99,,2013-01-19 14:03:00,
2013-01-19 09:12:00,26.0,22.0,30.49,West,259,2.0,6.0,85,0.00,,,-99.99,,2013-01-19 14:12:00,
2013-01-19 09:23:00,28.0,24.0,30.49,NW,314,0.0,3.0,84,0.00,,,-99.99,,2013-01-19 14:23:00,
2013-01-19 09:34:00,28.0,24.0,30.50,WNW,300,3.0,4.0,85,0.00,,,-99.99,,2013-01-19 14:34:00,
2013-01-19 09:43:00,28.0,24.0,30.50,WNW,300,3.0,4.0,85,0.00,,,-99.99,,2013-01-19 14:43:00,
2013-01-19 09:53:00,31.0,26.0,30.50,WNW,293,0.0,4.0,81,0.01,,,-99.99,,2013-01-19 14:53:00,
2013-01-19 10:03:00,32.0,27.0,30.50,WNW,285,0.0,2.0,82,0.01,,,-99.99,,2013-01-19 15:03:00,
2013-01-19 10:13:00,32.0,27.0,30.50,WNW,285,0.0,2.0,82,0.01,,,-99.99,,2013-01-19 15:13:00,
2013-01-19 10:23:00,34.0,29.0,30.51,NW,307,3.0,6.0,83,0.01,,,-99.99,,2013-01-19 15:23:00,
2013-01-19 10:33:00,34.0,29.0,30.51,West,264,4.0,6.0,82,0.01,,,-99.99,,2013-01-19 15:33:00,
2013-01-19 10:43:00,34.0,29.0,30.51,West,264,4.0,6.0,82,0.01,,,-99.99,,2013-01-19 15:43:00,
2013-01-19 10:53:00,35.0,30.0,30.51,WNW,291,0.0,5.0,82,0.00,,,-99.99,,2013-01-19 15:53:00,
2013-01-19 11:03:00,35.0,31.0,30.50,WSW,242,0.0,5.0,84,0.00,,,-99.99,,2013-01-19 16:03:00,
2013-01-19 11:13:00,35.0,31.0,30.50,WSW,242,0.0,5.0,84,0.00,,,-99.99,,2013-01-19 16:13:00,
2013-01-19 11:23:00,36.0,31.0,30.50,WNW,283,3.0,4.0,82,0.00,,,-99.99,,2013-01-19 16:23:00,
2013-01-19 11:33:00,36.0,30.0,30.49,NW,304,2.0,7.0,80,0.00,,,-99.99,,2013-01-19 16:33:00,
2013-01-19 11:43:00,36.0,30.0,30.49,NW,304,2.0,7.0,80,0.00,,,-99.99,,2013-01-19 16:43:00,
2013-01-19 11:54:00,37.0,32.0,30.48,NW,323,8.0,8.0,82,0.01,,,-99.99,,2013-01-19 16:54:00,
2013-01-19 12:03:00,38.0,32.0,30.47,NW,309,4.0,6.0,80,0.01,,,-99.99,,2013-01-19 17:03:00,
2013-01-19 12:20:00,38.0,32.0,30.47,NW,309,4.0,6.0,80,0.01,,,-99.99,,2013-01-19 17:20:00,
2013-01-19 12:29:00,38.0,33.0,30.46,West,271,6.0,9.0,81,0.02,,,-99.99,,2013-01-19 17:29:00,
2013-01-19 12:35:00,38.0,32.0,30.45,SW,235,8.0,8.0,79,0.02,,,-99.99,,2013-01-19 17:35:00,
2013-01-19 12:55:00,38.0,32.0,30.43,WNW,284,6.0,8.0,80,0.01,,,-99.99,,2013-01-19 17:55:00,
2013-01-19 13:12:00,38.0,31.0,30.42,NW,323,3.0,10.0,76,0.01,,,-99.99,,2013-01-19 18:12:00,
2013-01-19 13:35:00,39.0,29.0,30.41,WNW,297,5.0,7.0,67,0.01,,,-99.99,,2013-01-19 18:35:00,
2013-01-19 13:45:00,39.0,29.0,30.41,WNW,297,5.0,7.0,67,0.01,,,-99.99,,2013-01-19 18:45:00,
2013-01-19 14:02:00,41.0,29.0,30.40,South,183,0.0,6.0,62,0.01,,,-99.99,,2013-01-19 19:02:00,
2013-01-19 14:09:00,42.0,31.0,30.40,West,269,5.0,8.0,64,0.01,,,-99.99,,2013-01-19 19:09:00,
2013-01-19 14:20:00,42.0,31.0,30.40,West,269,5.0,8.0,64,0.01,,,-99.99,,2013-01-19 19:20:00,
2013-01-19 14:30:00,43.0,32.0,30.39,WNW,290,3.0,7.0,64,0.01,,,-99.99,,2013-01-19 19:30:00,
2013-01-19 14:39:00,43.0,32.0,30.38,West,260,2.0,9.0,64,0.00,,,-99.99,,2013-01-19 19:39:00,
2013-01-19 14:47:00,43.0,32.0,30.38,West,260,2.0,9.0,64,0.00,,,-99.99,,2013-01-19 19:47:00,
2013-01-19 15:10:00,45.0,30.0,30.36,WNW,301,4.0,11.0,55,0.00,,,-99.99,,2013-01-19 20:10:00,
2013-01-19 15:19:00,45.0,30.0,30.36,WNW,301,4.0,11.0,55,0.00,,,-99.99,,2013-01-19 20:19:00,
2013-01-19 15:25:00,44.0,29.0,30.35,NW,308,3.0,9.0,55,0.00,,,-99.99,,2013-01-19 20:25:00,
2013-01-19 15:38:00,45.0,29.0,30.35,NNW,328,5.0,7.0,54,0.00,,,-99.99,,2013-01-19 20:38:00,
2013-01-19 15:48:00,45.0,29.0,30.35,NNW,328,5.0,7.0,54,0.00,,,-99.99,,2013-01-19 20:48:00,
2013-01-19 16:07:00,44.0,28.0,30.35,SW,222,4.0,8.0,53,0.00,,,-99.99,,2013-01-19 21:07:00,
2013-01-19 16:14:00,44.0,28.0,30.35,SW,222,4.0,8.0,53,0.00,,,-99.99,,2013-01-19 21:14:00,
2013-01-19 16:26:00,42.0,33.0,30.35,SSW,193,8.0,8.0,71,0.00,,,-99.99,,2013-01-19 21:26:00,
2013-01-19 16:44:00,41.0,33.0,30.34,SW,217,5.0,8.0,73,0.00,,,-99.99,,2013-01-19 21:44:00,
2013-01-19 16:50:00,41.0,33.0,30.34,SW,217,5.0,8.0,73,0.00,,,-99.99,,2013-01-19 21:50:00,
2013-01-19 17:00:00,39.0,32.0,30.34,SSW,198,3.0,6.0,75,0.00,,,-99.99,,2013-01-19 22:00:00,
2013-01-19 17:14:00,39.0,32.0,30.35,SSW,207,4.0,6.0,76,0.00,,,-99.99,,2013-01-19 22:14:00,
2013-01-19 17:27:00,38.0,31.0,30.34,SSW,207,3.0,6.0,76,0.00,,,-99.99,,2013-01-19 22:27:00,
2013-01-19 17:35:00,37.0,30.0,30.34,West,259,0.0,3.0,77,0.00,,,-99.99,,2013-01-19 22:35:00,
2013-01-19 17:47:00,37.0,30.0,30.34,West,259,0.0,3.0,77,0.00,,,-99.99,,2013-01-19 22:47:00,
2013-01-19 17:58:00,36.0,29.0,30.33,WSW,238,3.0,4.0,77,0.00,,,-99.99,,2013-01-19 22:58:00,
2013-01-19 18:13:00,36.0,30.0,30.33,SSW,208,4.0,4.0,78,0.00,,,-99.99,,2013-01-19 23:13:00,
2013-01-19 18:25:00,35.0,29.0,30.33,WSW,253,0.0,4.0,79,0.00,,,-99.99,,2013-01-19 23:25:00,
2013-01-19 18:34:00,35.0,29.0,30.34,SW,232,0.0,4.0,79,0.00,,,-99.99,,2013-01-19 23:34:00,
2013-01-19 18:45:00,35.0,29.0,30.34,SW,232,0.0,4.0,79,0.00,,,-99.99,,2013-01-19 23:45:00,
2013-01-19 19:07:00,35.0,30.0,30.34,WSW,249,3.0,3.0,81,0.00,,,-99.99,,2013-01-20 00:07:00,
2013-01-19 19:15:00,34.0,29.0,30.34,NW,325,2.0,6.0,81,0.00,,,-99.99,,2013-01-20 00:15:00,
2013-01-19 19:25:00,34.0,29.0,30.33,WSW,238,0.0,5.0,82,0.00,,,-99.99,,2013-01-20 00:25:00,
2013-01-19 19:35:00,34.0,29.0,30.34,South,172,0.0,4.0,83,0.00,,,-99.99,,2013-01-20 00:35:00,
2013-01-19 19:46:00,34.0,29.0,30.34,South,172,0.0,4.0,83,0.00,,,-99.99,,2013-01-20 00:46:00,
2013-01-19 19:57:00,33.0,29.0,30.33,SW,231,1.0,6.0,84,0.00,,,-99.99,,2013-01-20 00:57:00,
2013-01-19 20:04:00,33.0,29.0,30.33,West,266,1.0,7.0,84,0.00,,,-99.99,,2013-01-20 01:04:00,
2013-01-19 20:20:00,33.0,29.0,30.33,West,266,1.0,7.0,84,0.00,,,-99.99,,2013-01-20 01:20:00,
2013-01-19 20:27:00,33.0,29.0,30.33,SSE,148,0.0,0.0,85,0.00,,,-99.99,,2013-01-20 01:27:00,
2013-01-19 20:48:00,32.0,28.0,30.33,NNE,20,0.0,3.0,86,0.00,,,-99.99,,2013-01-20 01:48:00,
2013-01-19 21:04:00,31.0,28.0,30.32,NW,311,1.0,4.0,88,0.00,,,-99.99,,2013-01-20 02:04:00,
2013-01-19 21:15:00,31.0,28.0,30.32,WNW,301,0.0,3.0,87,0.00,,,-99.99,,2013-01-20 02:15:00,
2013-01-19 21:27:00,31.0,28.0,30.31,NW,316,3.0,6.0,87,0.00,,,-99.99,,2013-01-20 02:27:00,
2013-01-19 21:35:00,31.0,26.0,30.31,WNW,285,7.0,8.0,83,0.00,,,-99.99,,2013-01-20 02:35:00,
2013-01-19 21:44:00,31.0,26.0,30.31,WNW,285,7.0,8.0,83,0.00,,,-99.99,,2013-01-20 02:44:00,
2013-01-19 21:59:00,33.0,26.0,30.29,NW,315,3.0,6.0,76,0.00,,,-99.99,,2013-01-20 02:59:00,
2013-01-19 22:08:00,33.0,26.0,30.30,NW,311,5.0,8.0,75,0.00,,,-99.99,,2013-01-20 03:08:00,
2013-01-19 22:15:00,33.0,26.0,30.30,NW,311,5.0,8.0,75,0.00,,,-99.99,,2013-01-20 03:15:00,
2013-01-19 22:25:00,33.0,27.0,30.29,NNW,342,8.0,8.0,77,0.00,,,-99.99,,2013-01-20 03:25:00,
2013-01-19 22:38:00,32.0,26.0,30.29,North,350,5.0,7.0,77,0.00,,,-99.99,,2013-01-20 03:38:00,
2013-01-19 22:45:00,32.0,26.0,30.29,North,350,5.0,7.0,77,0.00,,,-99.99,,2013-01-20 03:45:00,
2013-01-19 22:58:00,33.0,25.0,30.29,NW,309,4.0,11.0,73,0.00,,,-99.99,,2013-01-20 03:58:00,
2013-01-19 23:05:00,33.0,25.0,30.29,NW,314,2.0,7.0,73,0.00,,,-99.99,,2013-01-20 04:05:00,
2013-01-19 23:15:00,33.0,25.0,30.29,NW,314,2.0,7.0,73,0.00,,,-99.99,,2013-01-20 04:15:00,
2013-01-19 23:35:00,32.0,25.0,30.27,NW,311,0.0,6.0,74,0.00,,,-99.99,,2013-01-20 04:35:00,
2013-01-19 23:44:00,32.0,25.0,30.27,NW,311,0.0,6.0,74,0.00,,,-99.99,,2013-01-20 04:44:00,
2013-01-19 23:58:00,31.0,24.0,30.27,NNW,332,5.0,5.0,76,0.00,,,-99.99,,2013-01-20 04:58:00,